Time;durP1;ratioP1;P1;durP2;ratioP2;P2;SDS_P1;SDS_P2;PMS_P1;PMS_P2;Temp;Humidity;BMP_temperature;BMP_pressure;BME280_temperature;BME280_humidity;BME280_pressure;Samples;Min_cycle;Max_cycle;Signal;HPM_P1;HPM_P2
2022/10/16 00:01:37;;;;;;;;;;;;;;;15.57;76.97;101195.88;5099635;28;19924;-80
2022/10/16 00:04:22;;;;;;;;;;;;;;;15.43;77.50;101198.06;5098661;28;19920;-80
2022/10/16 00:07:06;;;;;;;;;;;;;;;15.21;78.48;101197.28;5098490;28;19920;-81
2022/10/16 00:09:51;;;;;;;;;;;;;;;15.27;78.44;101195.94;5099180;28;19916;-80
2022/10/16 00:12:35;;;;;;;;;;;;;;;15.41;77.97;101199.22;5088822;28;20300;-80
2022/10/16 00:15:20;;;;;;;;;;;;;;;15.34;78.07;101193.44;5077753;28;19917;-81
2022/10/16 00:18:04;;;;;;;;;;;;;;;15.35;78.17;101199.72;5078086;28;19920;-80
2022/10/16 00:20:51;;;;;;;;;;;;;;;15.34;78.35;101198.13;5101526;23;20368;-85
2022/10/16 00:23:36;;;;;;;;;;;;;;;15.39;78.00;101198.72;5037489;28;19925;-87
2022/10/16 00:26:20;;;;;;;;;;;;;;;15.45;77.49;101204.00;5034927;28;19917;-87
2022/10/16 00:29:05;;;;;;;;;;;;;;;15.43;77.89;101198.06;5043727;28;19917;-89
2022/10/16 00:31:50;;;;;;;;;;;;;;;15.55;77.50;101207.16;5056731;28;20388;-86
2022/10/16 00:34:35;;;;;;;;;;;;;;;15.47;77.47;101208.03;5046321;28;19917;-87
2022/10/16 00:37:19;;;;;;;;;;;;;;;15.46;77.58;101200.94;5058623;28;19921;-88
2022/10/16 00:40:04;;;;;;;;;;;;;;;15.44;77.46;101202.44;5042624;28;19917;-82
2022/10/16 00:42:48;;;;;;;;;;;;;;;15.34;77.97;101196.19;5034225;28;20451;-84
2022/10/16 00:45:33;;;;;;;;;;;;;;;15.39;78.01;101201.47;5035380;28;19917;-85
2022/10/16 00:48:19;;;;;;;;;;;;;;;15.36;78.00;101201.34;5040137;28;20304;-85
2022/10/16 00:51:05;;;;;;;;;;;;;;;15.25;78.31;101198.22;5038500;28;19917;-84
2022/10/16 00:53:50;;;;;;;;;;;;;;;15.32;78.35;101193.00;5035369;28;19928;-85
2022/10/16 00:56:34;;;;;;;;;;;;;;;15.25;78.61;101192.72;5034121;28;19917;-84
2022/10/16 00:59:21;;;;;;;;;;;;;;;15.09;79.29;101199.13;5037638;28;20401;-86
2022/10/16 01:02:07;;;;;;;;;;;;;;;14.97;79.88;101208.09;5035028;28;20396;-84
2022/10/16 01:04:53;;;;;;;;;;;;;;;14.79;80.71;101199.19;5039139;28;19921;-85
2022/10/16 01:07:43;;;;;;;;;;;;;;;14.72;80.90;101195.38;5037913;28;19917;-86
2022/10/16 01:10:32;;;;;;;;;;;;;;;14.70;81.28;101200.38;5034923;28;19917;-86
2022/10/16 01:13:24;;;;;;;;;;;;;;;14.75;80.99;101194.69;5032974;28;20388;-83
2022/10/16 01:16:13;;;;;;;;;;;;;;;14.78;80.90;101199.53;5038409;28;20307;-88
2022/10/16 01:19:02;;;;;;;;;;;;;;;14.87;80.42;101203.00;5030821;28;19917;-87
2022/10/16 01:21:47;;;;;;;;;;;;;;;14.90;80.06;101200.41;5031496;28;20007;-87
2022/10/16 01:24:39;;;;;;;;;;;;;;;15.01;79.74;101203.56;5033427;28;19917;-86
2022/10/16 01:27:26;;;;;;;;;;;;;;;15.01;79.59;101203.56;5043674;28;20392;-85
2022/10/16 01:30:17;;;;;;;;;;;;;;;15.12;79.04;101201.22;5038015;28;19917;-84
2022/10/16 01:33:06;;;;;;;;;;;;;;;15.02;79.42;101204.34;5018171;28;19921;-84
2022/10/16 01:35:54;;;;;;;;;;;;;;;15.00;79.60;101199.19;5014749;28;19917;-86
2022/10/16 01:38:39;;;;;;;;;;;;;;;15.03;79.53;101195.81;5017712;28;19917;-85
2022/10/16 01:41:30;;;;;;;;;;;;;;;15.14;79.41;101205.22;5016736;28;19917;-85
2022/10/16 01:44:28;;;;;;;;;;;;;;;15.15;79.30;101208.75;5051815;28;19917;-85
2022/10/16 01:47:13;;;;;;;;;;;;;;;15.24;79.05;101201.28;5034610;28;19925;-88
2022/10/16 01:49:59;;;;;;;;;;;;;;;15.34;78.94;101207.16;5035086;28;19917;-84
2022/10/16 01:52:46;;;;;;;;;;;;;;;15.41;78.80;101201.16;5033050;28;19921;-85
2022/10/16 01:55:33;;;;;;;;;;;;;;;15.48;78.32;101206.91;5037365;28;19917;-83
2022/10/16 01:58:18;;;;;;;;;;;;;;;15.48;78.51;101206.09;5036541;28;19917;-87
2022/10/16 02:01:04;;;;;;;;;;;;;;;15.59;77.81;101212.81;5020139;28;20607;-82
2022/10/16 02:03:51;;;;;;;;;;;;;;;15.60;77.67;101209.69;5039359;28;20377;-86
2022/10/16 02:06:36;;;;;;;;;;;;;;;15.70;77.18;101213.97;5020098;28;19917;-87
2022/10/16 02:09:21;;;;;;;;;;;;;;;15.76;76.83;101213.41;5026962;28;19917;-83
2022/10/16 02:12:15;;;;;;;;;;;;;;;15.82;76.58;101212.06;5015449;28;20293;-81
2022/10/16 02:15:00;;;;;;;;;;;;;;;15.75;76.70;101217.28;5014299;28;20313;-84
2022/10/16 02:17:45;;;;;;;;;;;;;;;15.80;76.73;101208.06;5032511;28;19917;-84
2022/10/16 02:20:31;;;;;;;;;;;;;;;15.62;77.33;101212.91;5035566;28;19921;-85
2022/10/16 02:23:19;;;;;;;;;;;;;;;15.69;77.38;101213.19;5032004;28;19929;-82
2022/10/16 02:26:06;;;;;;;;;;;;;;;15.88;76.86;101215.41;5031011;28;19918;-85
2022/10/16 02:28:54;;;;;;;;;;;;;;;15.92;77.03;101212.78;5015942;28;19918;-86
2022/10/16 02:31:42;;;;;;;;;;;;;;;15.95;77.13;101212.91;5013870;28;19918;-84
2022/10/16 02:34:27;;;;;;;;;;;;;;;15.95;77.23;101215.63;5012310;28;19925;-86
2022/10/16 02:37:12;;;;;;;;;;;;;;;15.95;77.29;101218.38;5021871;28;19917;-86
2022/10/16 02:39:58;;;;;;;;;;;;;;;15.97;77.03;101216.13;5038104;28;19917;-86
2022/10/16 02:42:42;;;;;;;;;;;;;;;16.01;76.44;101218.97;5031759;28;19917;-85
2022/10/16 02:45:26;;;;;;;;;;;;;;;15.99;76.37;101222.06;5024693;28;19917;-85
2022/10/16 02:48:11;;;;;;;;;;;;;;;15.97;76.68;101218.84;5024758;28;20311;-84
2022/10/16 02:50:56;;;;;;;;;;;;;;;16.01;76.60;101225.25;5037313;28;20085;-83
2022/10/16 02:53:41;;;;;;;;;;;;;;;16.09;76.24;101229.06;5030590;28;19917;-85
2022/10/16 02:56:25;;;;;;;;;;;;;;;16.05;76.22;101222.66;5017089;28;19921;-85
2022/10/16 02:59:10;;;;;;;;;;;;;;;15.93;76.72;101234.41;5035996;28;20380;-87
2022/10/16 03:01:54;;;;;;;;;;;;;;;15.92;76.93;101235.53;5039265;28;19917;-86
2022/10/16 03:04:39;;;;;;;;;;;;;;;15.91;76.95;101233.91;5036377;28;19929;-86
2022/10/16 03:07:23;;;;;;;;;;;;;;;15.79;77.62;101231.16;5036201;28;19917;-87
2022/10/16 03:10:08;;;;;;;;;;;;;;;15.84;77.61;101230.94;5036071;28;19917;-85
2022/10/16 03:12:52;;;;;;;;;;;;;;;15.72;78.35;101230.88;5035647;28;19917;-88
2022/10/16 03:15:37;;;;;;;;;;;;;;;15.76;78.39;101232.63;5035858;28;19921;-85
2022/10/16 03:18:21;;;;;;;;;;;;;;;15.93;78.25;101230.84;5029646;28;20310;-86
2022/10/16 03:21:06;;;;;;;;;;;;;;;16.04;77.73;101235.56;5017907;28;20297;-86
2022/10/16 03:23:50;;;;;;;;;;;;;;;15.98;77.59;101238.88;5017117;28;19917;-87
2022/10/16 03:26:34;;;;;;;;;;;;;;;16.03;78.50;101228.47;5044582;28;19917;-85
2022/10/16 03:29:19;;;;;;;;;;;;;;;16.06;78.46;101237.97;5021963;28;19917;-85
2022/10/16 03:32:03;;;;;;;;;;;;;;;16.16;78.34;101237.53;5018480;28;19918;-86
2022/10/16 03:34:48;;;;;;;;;;;;;;;16.11;78.24;101235.81;5019886;28;19921;-83
2022/10/16 03:37:32;;;;;;;;;;;;;;;16.24;77.72;101240.19;5034910;28;19917;-85
2022/10/16 03:40:17;;;;;;;;;;;;;;;16.19;78.14;101242.34;5042208;28;19917;-85
2022/10/16 03:43:02;;;;;;;;;;;;;;;16.01;77.84;101243.66;5038961;28;20384;-86
2022/10/16 03:45:47;;;;;;;;;;;;;;;15.96;77.81;101239.19;5043042;28;20296;-86
2022/10/16 03:48:31;;;;;;;;;;;;;;;15.94;78.02;101236.00;5042961;28;19937;-86
2022/10/16 03:51:16;;;;;;;;;;;;;;;16.02;77.86;101242.53;5053215;28;19905;-88
2022/10/16 03:54:01;;;;;;;;;;;;;;;16.04;77.80;101246.56;5058935;28;19917;-86
2022/10/16 03:56:45;;;;;;;;;;;;;;;16.01;78.03;101251.88;5054748;28;19922;-84
2022/10/16 03:59:30;;;;;;;;;;;;;;;16.11;77.61;101245.97;5044051;28;19921;-88
2022/10/16 04:02:14;;;;;;;;;;;;;;;16.11;77.43;101241.28;5043507;28;19917;-88
2022/10/16 04:05:00;;;;;;;;;;;;;;;16.03;77.59;101242.19;5044956;28;19918;-85
2022/10/16 04:07:44;;;;;;;;;;;;;;;15.93;78.47;101248.09;5052453;28;19917;-89
2022/10/16 04:10:29;;;;;;;;;;;;;;;15.84;78.93;101247.41;5060546;28;19917;-87
2022/10/16 04:13:13;;;;;;;;;;;;;;;15.94;78.56;101246.19;5058961;28;19917;-85
2022/10/16 04:15:57;;;;;;;;;;;;;;;15.99;78.20;101257.75;5040685;28;20392;-87
2022/10/16 04:18:42;;;;;;;;;;;;;;;16.13;77.98;101254.69;5055449;28;19909;-85
2022/10/16 04:21:26;;;;;;;;;;;;;;;15.96;78.53;101258.41;5047430;28;19917;-88
2022/10/16 04:24:11;;;;;;;;;;;;;;;15.49;81.16;101262.53;5037918;28;19917;-85
2022/10/16 04:26:56;;;;;;;;;;;;;;;15.54;81.36;101254.94;5034519;28;19917;-83
2022/10/16 04:29:40;;;;;;;;;;;;;;;15.76;80.27;101256.50;5037645;28;20412;-86
2022/10/16 04:32:24;;;;;;;;;;;;;;;15.82;79.87;101263.38;5036277;28;19917;-85
2022/10/16 04:35:09;;;;;;;;;;;;;;;15.96;79.34;101265.81;5050087;28;19921;-85
2022/10/16 04:37:53;;;;;;;;;;;;;;;15.99;78.69;101276.13;5028693;28;19921;-83
2022/10/16 04:40:37;;;;;;;;;;;;;;;15.82;79.50;101277.09;5039407;28;19917;-84
2022/10/16 04:43:22;;;;;;;;;;;;;;;15.91;78.93;101275.06;5026358;28;19917;-85
2022/10/16 04:46:06;;;;;;;;;;;;;;;15.88;79.13;101281.25;5047486;28;19917;-82
2022/10/16 04:48:51;;;;;;;;;;;;;;;16.05;78.37;101281.06;5035033;28;19917;-85
2022/10/16 04:51:36;;;;;;;;;;;;;;;16.09;78.03;101281.19;5028037;28;20388;-85
2022/10/16 04:54:20;;;;;;;;;;;;;;;16.23;77.98;101287.19;5036547;28;19921;-84
2022/10/16 04:57:04;;;;;;;;;;;;;;;16.12;78.21;101286.81;5052553;28;19926;-86
2022/10/16 04:59:49;;;;;;;;;;;;;;;16.02;78.00;101294.66;5034074;28;20300;-87
2022/10/16 05:02:34;;;;;;;;;;;;;;;15.96;78.35;101294.06;5054272;28;19917;-84
2022/10/16 05:05:21;;;;;;;;;;;;;;;15.89;79.01;101296.56;5039995;28;19917;-83
2022/10/16 05:08:07;;;;;;;;;;;;;;;15.86;79.14;101301.91;5033145;28;19917;-83
2022/10/16 05:10:51;;;;;;;;;;;;;;;15.87;79.14;101296.09;5030460;28;19917;-83
2022/10/16 05:13:36;;;;;;;;;;;;;;;15.87;79.70;101295.28;5025455;28;19922;-81
2022/10/16 05:16:20;;;;;;;;;;;;;;;15.96;79.43;101294.06;5034661;28;19929;-82
2022/10/16 05:19:05;;;;;;;;;;;;;;;15.81;80.02;101300.16;5042417;28;19925;-83
2022/10/16 05:21:49;;;;;;;;;;;;;;;15.82;80.05;101294.34;5035699;28;20300;-85
2022/10/16 05:24:34;;;;;;;;;;;;;;;15.90;79.74;101294.63;5033380;28;19938;-85
2022/10/16 05:27:19;;;;;;;;;;;;;;;15.91;80.01;101296.19;5018706;28;20385;-86
2022/10/16 05:30:04;;;;;;;;;;;;;;;16.03;79.24;101293.50;5021169;28;19917;-85
2022/10/16 05:32:49;;;;;;;;;;;;;;;16.06;78.58;101290.09;5027892;28;19918;-83
2022/10/16 05:35:34;;;;;;;;;;;;;;;15.93;79.23;101300.22;5042342;28;19921;-85
2022/10/16 05:38:18;;;;;;;;;;;;;;;15.94;79.26;101296.34;5027849;28;19917;-81
2022/10/16 05:41:04;;;;;;;;;;;;;;;15.98;78.86;101299.22;5047513;28;19917;-83
2022/10/16 05:43:49;;;;;;;;;;;;;;;15.93;79.03;101305.72;5029704;28;20299;-84
2022/10/16 05:46:33;;;;;;;;;;;;;;;16.02;78.71;101306.44;5026307;28;20296;-81
2022/10/16 05:49:18;;;;;;;;;;;;;;;15.98;78.98;101316.47;5034859;28;20312;-83
2022/10/16 05:52:03;;;;;;;;;;;;;;;16.08;78.35;101321.53;5032518;28;19917;-80
2022/10/16 05:54:47;;;;;;;;;;;;;;;16.09;78.44;101325.91;5028076;28;19917;-82
2022/10/16 05:57:31;;;;;;;;;;;;;;;15.97;79.17;101322.28;5050325;28;19921;-83
2022/10/16 06:00:16;;;;;;;;;;;;;;;15.96;79.76;101328.91;5031157;28;19917;-84
2022/10/16 06:03:00;;;;;;;;;;;;;;;16.20;78.70;101327.06;5019278;28;19917;-84
2022/10/16 06:05:45;;;;;;;;;;;;;;;16.30;78.51;101325.06;5034519;28;19917;-83
2022/10/16 06:08:29;;;;;;;;;;;;;;;16.47;77.76;101335.84;5027085;28;20401;-84
2022/10/16 06:11:15;;;;;;;;;;;;;;;16.39;78.41;101334.81;5026534;28;19918;-84
2022/10/16 06:14:02;;;;;;;;;;;;;;;16.66;77.55;101339.69;5035823;28;20335;-81
2022/10/16 06:16:47;;;;;;;;;;;;;;;16.64;77.63;101335.69;5025451;28;19921;-82
2022/10/16 06:19:31;;;;;;;;;;;;;;;16.57;77.71;101340.88;5034911;28;19917;-86
2022/10/16 06:22:16;;;;;;;;;;;;;;;16.61;78.21;101344.59;5075849;22;19924;-80
2022/10/16 06:25:00;;;;;;;;;;;;;;;16.70;77.76;101350.00;5072445;28;20310;-79
2022/10/16 06:27:44;;;;;;;;;;;;;;;16.67;77.19;101362.47;5069910;28;19920;-79
2022/10/16 06:30:29;;;;;;;;;;;;;;;16.64;77.54;101360.41;5078126;28;20387;-79
2022/10/16 06:33:13;;;;;;;;;;;;;;;16.92;76.62;101366.84;5055727;28;19924;-79
2022/10/16 06:36:04;;;;;;;;;;;;;;;17.01;76.32;101375.00;5062724;28;20383;-80
2022/10/16 06:38:49;;;;;;;;;;;;;;;16.80;76.71;101374.28;5054208;28;19917;-79
2022/10/16 06:41:34;;;;;;;;;;;;;;;16.84;76.33;101372.44;5050037;28;19917;-80
2022/10/16 06:44:29;;;;;;;;;;;;;;;16.85;76.60;101374.88;5065413;28;19916;-79
2022/10/16 06:47:13;;;;;;;;;;;;;;;16.82;78.38;101386.50;5049652;28;20443;-79
2022/10/16 06:49:58;;;;;;;;;;;;;;;17.05;77.05;101389.66;5042309;28;20395;-81
2022/10/16 06:52:42;;;;;;;;;;;;;;;17.06;76.68;101392.06;5041737;28;19920;-79
2022/10/16 06:55:27;;;;;;;;;;;;;;;17.21;75.98;101395.28;5054348;28;19916;-79
2022/10/16 06:58:12;;;;;;;;;;;;;;;17.26;75.39;101401.34;5061761;28;19917;-80
2022/10/16 07:00:57;;;;;;;;;;;;;;;17.46;74.73;101407.88;5047472;28;19916;-80
2022/10/16 07:03:42;;;;;;;;;;;;;;;17.54;74.23;101412.44;5051550;28;19917;-80
2022/10/16 07:06:27;;;;;;;;;;;;;;;17.64;74.17;101416.69;5057152;28;19916;-78
2022/10/16 07:09:11;;;;;;;;;;;;;;;17.64;73.59;101422.19;5067014;28;19916;-78
2022/10/16 07:11:59;;;;;;;;;;;;;;;17.91;72.79;101424.22;5059717;28;19917;-78
2022/10/16 07:14:43;;;;;;;;;;;;;;;18.12;72.01;101438.63;5069383;28;19925;-80
2022/10/16 07:17:28;;;;;;;;;;;;;;;18.35;70.90;101438.88;5077707;28;19917;-79
2022/10/16 07:20:12;;;;;;;;;;;;;;;18.26;71.35;101443.75;5075867;28;19917;-79
2022/10/16 07:22:56;;;;;;;;;;;;;;;18.35;71.16;101452.66;5075861;28;19916;-79
2022/10/16 07:25:41;;;;;;;;;;;;;;;18.41;71.00;101453.22;5071526;28;19916;-78
2022/10/16 07:28:26;;;;;;;;;;;;;;;18.55;70.44;101459.94;5058471;28;19917;-79
2022/10/16 07:31:11;;;;;;;;;;;;;;;18.52;70.09;101462.59;5069963;28;19916;-81
2022/10/16 07:33:57;;;;;;;;;;;;;;;18.65;70.20;101472.41;5076977;28;19939;-82
2022/10/16 07:36:42;;;;;;;;;;;;;;;18.62;69.70;101473.13;5065242;28;19917;-79
2022/10/16 07:39:26;;;;;;;;;;;;;;;18.76;68.87;101479.84;5064026;28;19916;-81
2022/10/16 07:42:11;;;;;;;;;;;;;;;18.59;68.85;101474.63;5058005;28;19920;-80
2022/10/16 07:44:55;;;;;;;;;;;;;;;18.28;71.00;101482.75;5063493;28;19921;-81
2022/10/16 07:47:40;;;;;;;;;;;;;;;18.19;71.19;101477.38;5079591;28;19917;-80
2022/10/16 07:50:24;;;;;;;;;;;;;;;18.56;70.08;101471.78;5081610;28;19920;-80
2022/10/16 07:53:09;;;;;;;;;;;;;;;18.48;69.34;101479.03;5078993;28;19920;-81
2022/10/16 07:55:58;;;;;;;;;;;;;;;18.53;69.18;101477.97;5079488;28;19916;-79
2022/10/16 07:58:42;;;;;;;;;;;;;;;18.47;69.90;101485.69;5079597;28;19916;-79
2022/10/16 08:01:27;;;;;;;;;;;;;;;18.88;68.88;101486.44;5079480;28;19937;-80
2022/10/16 08:04:11;;;;;;;;;;;;;;;18.82;68.25;101498.88;5082826;28;20407;-80
2022/10/16 08:06:56;;;;;;;;;;;;;;;18.49;69.72;101499.88;5079943;28;19917;-81
2022/10/16 08:09:40;;;;;;;;;;;;;;;18.17;70.18;101506.41;5078873;28;19916;-80
2022/10/16 08:12:25;;;;;;;;;;;;;;;18.45;69.22;101500.94;5079254;28;19916;-80
2022/10/16 08:15:10;;;;;;;;;;;;;;;18.99;66.76;101504.09;5079375;28;19921;-80
2022/10/16 08:17:55;;;;;;;;;;;;;;;19.43;65.57;101508.41;5079006;28;19920;-80
2022/10/16 08:20:41;;;;;;;;;;;;;;;19.39;65.59;101504.75;5079393;28;19916;-81
2022/10/16 08:23:26;;;;;;;;;;;;;;;19.86;64.08;101512.25;5078824;28;20371;-80
2022/10/16 08:26:11;;;;;;;;;;;;;;;19.91;63.72;101511.97;5078564;28;19924;-80
2022/10/16 08:28:56;;;;;;;;;;;;;;;19.94;63.51;101505.72;5082515;28;20299;-79
2022/10/16 08:31:40;;;;;;;;;;;;;;;20.01;63.39;101508.66;5078600;28;19917;-80
2022/10/16 08:34:24;;;;;;;;;;;;;;;19.90;62.46;101522.19;5078972;28;19921;-78
2022/10/16 08:37:11;;;;;;;;;;;;;;;20.18;61.66;101515.72;5083116;28;20291;-79
2022/10/16 08:39:55;;;;;;;;;;;;;;;20.43;60.48;101512.38;5075678;28;19916;-78
2022/10/16 08:42:52;;;;;;;;;;;;;;;20.43;60.18;101514.31;5075524;28;19916;-78
2022/10/16 08:45:36;;;;;;;;;;;;;;;20.57;60.14;101519.38;5074343;28;19916;-79
2022/10/16 08:48:29;;;;;;;;;;;;;;;20.70;59.59;101521.63;5076529;28;19917;-78
2022/10/16 08:51:20;;;;;;;;;;;;;;;21.32;57.11;101511.38;5074757;28;19917;-78
2022/10/16 08:54:11;;;;;;;;;;;;;;;21.50;56.41;101514.41;5078323;28;20376;-79
2022/10/16 08:57:00;;;;;;;;;;;;;;;21.21;56.72;101510.38;5078360;28;19916;-80
2022/10/16 08:59:45;;;;;;;;;;;;;;;20.92;58.22;101517.31;5075687;28;19916;-78
2022/10/16 09:02:45;;;;;;;;;;;;;;;21.56;56.95;101512.94;5073915;28;19924;-78
2022/10/16 09:05:29;;;;;;;;;;;;;;;21.87;55.42;101512.66;5078297;28;19916;-79
2022/10/16 09:08:22;;;;;;;;;;;;;;;21.75;54.19;101507.31;5076802;28;20784;-82
2022/10/16 09:11:18;;;;;;;;;;;;;;;21.44;54.78;101515.91;5080257;28;19917;-80
2022/10/16 09:14:15;;;;;;;;;;;;;;;21.84;54.06;101523.69;5077615;28;19921;-79
2022/10/16 09:17:03;;;;;;;;;;;;;;;21.71;54.89;101520.31;5077837;28;19923;-81
2022/10/16 09:20:00;;;;;;;;;;;;;;;21.58;54.84;101511.41;5076763;28;19916;-79
2022/10/16 09:22:44;;;;;;;;;;;;;;;21.44;55.19;101511.16;5076804;28;19920;-80
2022/10/16 09:25:30;;;;;;;;;;;;;;;22.10;52.72;101513.41;5080646;28;19916;-81
2022/10/16 09:28:15;;;;;;;;;;;;;;;21.54;54.62;101515.28;5078029;28;19921;-81
2022/10/16 09:31:00;;;;;;;;;;;;;;;22.26;52.94;101515.22;5075253;28;19917;-80
2022/10/16 09:33:47;;;;;;;;;;;;;;;22.22;52.89;101517.16;5077571;28;19920;-80
2022/10/16 09:36:38;;;;;;;;;;;;;;;22.44;52.19;101513.50;5076858;28;19916;-80
2022/10/16 09:39:23;;;;;;;;;;;;;;;22.20;53.00;101514.75;5076447;28;19916;-80
2022/10/16 09:42:10;;;;;;;;;;;;;;;22.52;52.16;101509.63;5077769;28;19916;-79
2022/10/16 09:44:56;;;;;;;;;;;;;;;23.07;50.49;101512.66;5078446;28;19920;-81
2022/10/16 09:47:42;;;;;;;;;;;;;;;22.34;53.11;101509.41;5076245;28;19916;-79
2022/10/16 09:50:27;;;;;;;;;;;;;;;22.47;52.38;101509.97;5077680;28;19917;-81
2022/10/16 09:53:13;;;;;;;;;;;;;;;22.51;51.99;101513.56;5077195;28;19920;-80
2022/10/16 09:55:58;;;;;;;;;;;;;;;22.60;52.26;101514.09;5076951;28;19916;-81
2022/10/16 09:58:44;;;;;;;;;;;;;;;22.54;52.10;101518.38;5077140;28;19916;-80
2022/10/16 10:01:38;;;;;;;;;;;;;;;22.44;51.84;101519.03;5076880;28;19916;-80
2022/10/16 10:04:23;;;;;;;;;;;;;;;22.65;51.46;101519.31;5076427;28;19917;-80
2022/10/16 10:07:17;;;;;;;;;;;;;;;22.49;51.59;101513.16;5076652;28;19916;-79
2022/10/16 10:10:04;;;;;;;;;;;;;;;23.13;49.98;101516.69;5077159;28;19917;-81
2022/10/16 10:12:49;;;;;;;;;;;;;;;22.83;51.39;101509.25;5075778;28;19916;-80
2022/10/16 10:15:35;;;;;;;;;;;;;;;23.03;50.54;101518.19;5076687;28;19920;-81
2022/10/16 10:18:22;;;;;;;;;;;;;;;23.18;50.20;101514.38;5076223;28;19916;-81
2022/10/16 10:21:14;;;;;;;;;;;;;;;23.17;50.19;101509.19;5077322;28;19917;-81
2022/10/16 10:23:59;;;;;;;;;;;;;;;23.32;50.08;101508.16;5077246;28;19916;-80
2022/10/16 10:26:50;;;;;;;;;;;;;;;23.25;49.79;101503.34;5078074;28;19916;-80
2022/10/16 10:29:53;;;;;;;;;;;;;;;24.01;48.69;101509.13;5081363;28;20379;-80
2022/10/16 10:32:37;;;;;;;;;;;;;;;23.24;49.40;101506.50;5077332;28;19916;-80
2022/10/16 10:35:25;;;;;;;;;;;;;;;23.67;48.89;101502.16;5077267;28;19920;-80
2022/10/16 10:38:17;;;;;;;;;;;;;;;23.60;49.28;101502.88;5080520;28;19916;-81
2022/10/16 10:41:13;;;;;;;;;;;;;;;24.16;47.90;101510.81;5078435;28;20303;-81
2022/10/16 10:44:03;;;;;;;;;;;;;;;24.76;46.10;101510.31;5065501;28;19917;-80
2022/10/16 10:46:50;;;;;;;;;;;;;;;23.85;48.27;101498.31;5054408;28;19917;-80
2022/10/16 10:49:42;;;;;;;;;;;;;;;24.02;48.84;101496.84;5050430;28;20323;-81
2022/10/16 10:52:33;;;;;;;;;;;;;;;24.58;47.32;101501.88;5060294;28;19917;-79
2022/10/16 10:55:37;;;;;;;;;;;;;;;24.71;46.54;101496.78;5063066;28;19921;-81
2022/10/16 10:58:37;;;;;;;;;;;;;;;25.01;46.06;101502.84;5048832;28;19917;-81
2022/10/16 11:01:29;;;;;;;;;;;;;;;25.00;45.79;101501.25;5047841;28;19917;-81
2022/10/16 11:04:14;;;;;;;;;;;;;;;25.07;45.10;101498.50;5051158;28;19916;-80
2022/10/16 11:07:01;;;;;;;;;;;;;;;26.14;42.81;101496.47;5060258;28;20403;-80
2022/10/16 11:09:48;;;;;;;;;;;;;;;26.28;43.01;101495.66;5056675;28;19920;-81
2022/10/16 11:12:42;;;;;;;;;;;;;;;26.23;42.97;101494.09;5054245;28;19916;-81
2022/10/16 11:15:32;;;;;;;;;;;;;;;25.67;44.25;101499.75;5054625;28;19920;-80
2022/10/16 11:18:19;;;;;;;;;;;;;;;25.17;45.22;101504.47;5054214;28;19916;-82
2022/10/16 11:21:09;;;;;;;;;;;;;;;24.68;46.78;101506.72;5064314;28;19916;-81
2022/10/16 11:24:05;;;;;;;;;;;;;;;24.19;48.32;101500.91;5072905;28;20391;-81
2022/10/16 11:26:51;;;;;;;;;;;;;;;25.01;46.36;101499.28;5056610;28;19917;-81
2022/10/16 11:29:42;;;;;;;;;;;;;;;24.04;47.81;101494.44;5062045;28;19917;-80
2022/10/16 11:32:35;;;;;;;;;;;;;;;24.48;47.19;101494.28;5076585;28;20299;-80
2022/10/16 11:35:37;;;;;;;;;;;;;;;24.58;46.49;101495.56;5076113;28;19921;-80
2022/10/16 11:38:34;;;;;;;;;;;;;;;24.34;47.67;101491.47;5081839;28;19921;-80
2022/10/16 11:41:24;;;;;;;;;;;;;;;24.75;46.64;101494.00;5078000;28;19924;-81
2022/10/16 11:44:27;;;;;;;;;;;;;;;25.17;45.03;101491.34;5076725;28;20321;-81
2022/10/16 11:47:12;;;;;;;;;;;;;;;27.18;40.93;101489.22;5080093;28;19917;-81
2022/10/16 11:50:01;;;;;;;;;;;;;;;26.06;43.11;101483.75;5075712;28;19916;-80
2022/10/16 11:52:54;;;;;;;;;;;;;;;25.90;43.91;101487.00;5074994;28;19921;-80
2022/10/16 11:55:39;;;;;;;;;;;;;;;26.99;41.17;101486.97;5078019;28;20307;-81
2022/10/16 11:58:33;;;;;;;;;;;;;;;28.55;38.04;101491.13;5078629;28;19916;-81
2022/10/16 12:01:30;;;;;;;;;;;;;;;31.55;32.52;101487.41;5078953;28;19916;-81
2022/10/16 12:04:24;;;;;;;;;;;;;;;31.28;32.92;101493.34;5068854;28;19917;-78
2022/10/16 12:07:11;;;;;;;;;;;;;;;34.04;28.48;101508.81;5072461;28;19916;-79
2022/10/16 12:10:00;;;;;;;;;;;;;;;32.87;28.98;101501.44;5061274;28;19917;-78
2022/10/16 12:12:46;;;;;;;;;;;;;;;28.32;37.11;101491.78;5055494;28;19920;-79
2022/10/16 12:15:32;;;;;;;;;;;;;;;29.36;36.00;101495.56;5055658;28;19921;-80
2022/10/16 12:18:23;;;;;;;;;;;;;;;31.49;32.43;101483.56;5050384;28;19917;-80
2022/10/16 12:21:08;;;;;;;;;;;;;;;32.33;30.43;101493.00;5049608;28;19917;-80
2022/10/16 12:23:54;;;;;;;;;;;;;;;31.80;31.47;101481.94;5059255;22;19925;-81
2022/10/16 12:26:41;;;;;;;;;;;;;;;33.32;28.50;101495.59;5059015;28;19929;-81
2022/10/16 12:29:34;;;;;;;;;;;;;;;31.86;31.39;101487.81;5036862;28;19917;-81
2022/10/16 12:32:28;;;;;;;;;;;;;;;29.06;36.08;101484.41;5034506;28;19917;-81
2022/10/16 12:35:27;;;;;;;;;;;;;;;30.11;34.38;101489.44;5034383;28;19921;-80
2022/10/16 12:38:19;;;;;;;;;;;;;;;28.16;37.66;101485.97;5034702;28;19921;-82
2022/10/16 12:41:08;;;;;;;;;;;;;;;29.03;36.54;101485.25;5062707;28;19929;-81
2022/10/16 12:43:52;;;;;;;;;;;;;;;32.11;32.34;101490.78;5034256;28;19917;-80
2022/10/16 12:46:39;;;;;;;;;;;;;;;36.62;24.29;101503.06;5034714;28;19917;-81
2022/10/16 12:49:32;;;;;;;;;;;;;;;34.99;25.94;101499.59;5050492;28;19920;-80
2022/10/16 12:52:24;;;;;;;;;;;;;;;37.06;24.08;101498.47;5068383;28;19917;-81
2022/10/16 12:55:15;;;;;;;;;;;;;;;34.61;26.62;101496.22;5040328;28;19921;-81
2022/10/16 12:58:13;;;;;;;;;;;;;;;29.41;34.36;101491.50;5033987;28;19917;-81
2022/10/16 13:01:04;;;;;;;;;;;;;;;27.42;38.80;101481.88;5037055;28;19917;-82
2022/10/16 13:03:49;;;;;;;;;;;;;;;27.24;39.93;101482.81;5065155;28;19917;-82
2022/10/16 13:06:34;;;;;;;;;;;;;;;28.16;37.73;101492.38;5036378;28;19917;-83
2022/10/16 13:09:32;;;;;;;;;;;;;;;30.03;34.35;101502.81;5044867;28;19917;-82
2022/10/16 13:12:19;;;;;;;;;;;;;;;31.77;31.14;101490.50;5061455;28;19918;-83
2022/10/16 13:15:22;;;;;;;;;;;;;;;31.58;30.83;101497.03;5033476;28;20007;-83
2022/10/16 13:18:25;;;;;;;;;;;;;;;34.50;26.82;101504.31;5035339;28;19921;-83
2022/10/16 13:21:09;;;;;;;;;;;;;;;33.34;28.05;101501.56;5071611;28;19917;-82
2022/10/16 13:24:02;;;;;;;;;;;;;;;32.16;30.06;101493.03;5041388;28;19917;-82
2022/10/16 13:26:46;;;;;;;;;;;;;;;32.79;29.46;101498.06;5048754;28;19917;-83
2022/10/16 13:29:31;;;;;;;;;;;;;;;34.89;26.03;101508.50;5054487;28;19921;-81
2022/10/16 13:32:16;;;;;;;;;;;;;;;34.50;25.91;101507.94;5044243;28;19917;-82
2022/10/16 13:35:01;;;;;;;;;;;;;;;34.25;26.47;101508.88;5055981;28;19920;-82
2022/10/16 13:37:45;;;;;;;;;;;;;;;32.53;28.68;101499.22;5073092;28;19917;-83
2022/10/16 13:40:29;;;;;;;;;;;;;;;33.69;27.44;101506.03;5042019;28;19917;-82
2022/10/16 13:43:14;;;;;;;;;;;;;;;33.63;27.37;101505.00;5025870;28;19917;-81
2022/10/16 13:46:13;;;;;;;;;;;;;;;30.69;31.36;101504.69;5034293;28;20312;-82
2022/10/16 13:48:59;;;;;;;;;;;;;;;29.93;32.92;101503.00;5035016;28;19916;-82
2022/10/16 13:51:56;;;;;;;;;;;;;;;30.60;32.13;101498.88;5035841;28;19925;-79
2022/10/16 13:54:41;;;;;;;;;;;;;;;30.77;32.31;101500.53;5028941;28;19921;-80
2022/10/16 13:57:25;;;;;;;;;;;;;;;30.83;31.93;101504.38;5034030;28;19917;-82
2022/10/16 14:00:19;;;;;;;;;;;;;;;32.24;30.23;101507.72;5034044;28;20380;-80
2022/10/16 14:03:12;;;;;;;;;;;;;;;33.42;27.88;101512.13;5037173;28;19929;-83
2022/10/16 14:06:00;;;;;;;;;;;;;;;30.09;32.75;101503.09;5055053;28;19917;-83
2022/10/16 14:08:48;;;;;;;;;;;;;;;29.72;34.04;101510.56;5033780;28;19917;-83
2022/10/16 14:11:33;;;;;;;;;;;;;;;28.85;35.06;101502.34;5033020;28;19917;-81
2022/10/16 14:14:22;;;;;;;;;;;;;;;30.50;32.41;101497.88;5046573;28;19921;-83
2022/10/16 14:17:13;;;;;;;;;;;;;;;31.55;30.83;101504.28;5015911;28;20544;-82